createdAt,value
2023-10-29T00:01:24.673Z,14.40
2023-10-29T00:03:57.406Z,14.30
2023-10-29T00:06:25.895Z,14.21
2023-10-29T00:08:54.328Z,14.12
2023-10-29T00:11:24.003Z,14.02
2023-10-29T00:13:52.258Z,13.90
2023-10-29T00:16:21.652Z,13.79
2023-10-29T00:18:50.411Z,13.68
2023-10-29T00:21:18.639Z,13.57
2023-10-29T00:23:47.438Z,13.47
2023-10-29T00:26:16.399Z,13.37
2023-10-29T00:28:45.489Z,13.31
2023-10-29T00:31:13.919Z,13.23
2023-10-29T00:33:43.384Z,13.21
2023-10-29T00:36:11.651Z,13.18
2023-10-29T00:38:40.167Z,13.16
2023-10-29T00:41:08.921Z,13.13
2023-10-29T00:43:43.955Z,13.09
2023-10-29T00:46:15.028Z,13.05
2023-10-29T00:48:45.729Z,13.03
2023-10-29T00:51:14.925Z,12.94
2023-10-29T00:53:43.765Z,12.80
2023-10-29T00:56:13.596Z,12.75
2023-10-29T00:58:43.038Z,12.73
2023-10-29T01:01:11.836Z,12.70
2023-10-29T01:03:40.118Z,12.66
2023-10-29T01:06:09.752Z,12.62
2023-10-29T01:08:39.156Z,12.58
2023-10-29T01:11:08.603Z,12.54
2023-10-29T01:13:38.525Z,12.51
2023-10-29T01:16:07.529Z,12.49
2023-10-29T01:18:36.107Z,12.46
2023-10-29T01:21:05.001Z,12.43
2023-10-29T01:23:33.682Z,12.40
2023-10-29T01:26:01.957Z,12.38
2023-10-29T01:28:31.043Z,12.40
2023-10-29T01:31:00.622Z,12.43
2023-10-29T01:33:29.034Z,12.45
2023-10-29T01:35:57.666Z,12.45
2023-10-29T01:38:26.119Z,12.45
2023-10-29T01:40:55.082Z,12.40
2023-10-29T01:43:23.470Z,12.33
2023-10-29T01:45:51.546Z,12.27
2023-10-29T01:48:23.038Z,12.23
2023-10-29T01:50:51.820Z,12.22
2023-10-29T01:53:21.515Z,12.20
2023-10-29T01:55:50.063Z,12.18
2023-10-29T01:58:19.577Z,12.14
2023-10-29T02:00:49.173Z,12.12
2023-10-29T02:03:17.980Z,12.11
2023-10-29T02:05:46.386Z,12.10
2023-10-29T02:08:14.725Z,12.10
2023-10-29T02:10:43.200Z,12.10
2023-10-29T02:13:12.299Z,12.08
2023-10-29T02:15:42.334Z,12.07
2023-10-29T02:18:10.670Z,12.07
2023-10-29T02:20:39.834Z,12.11
2023-10-29T02:23:08.270Z,12.13
2023-10-29T02:25:38.113Z,12.13
2023-10-29T02:28:09.327Z,12.11
2023-10-29T02:30:38.433Z,12.08
2023-10-29T02:33:07.049Z,12.05
2023-10-29T02:35:35.491Z,12.04
2023-10-29T02:38:03.658Z,12.05
2023-10-29T02:40:32.142Z,12.04
2023-10-29T02:43:00.922Z,12.04
2023-10-29T02:45:31.483Z,12.04
2023-10-29T02:47:59.808Z,12.05
2023-10-29T02:50:28.322Z,12.05
2023-10-29T02:52:56.588Z,12.05
2023-10-29T02:55:26.409Z,12.07
2023-10-29T02:57:54.683Z,12.07
2023-10-29T03:00:22.960Z,12.04
2023-10-29T03:02:52.645Z,12.07
2023-10-29T03:05:22.284Z,12.15
2023-10-29T03:07:50.558Z,12.28
2023-10-29T03:10:19.037Z,12.44
2023-10-29T03:12:47.336Z,12.57
2023-10-29T03:15:16.424Z,12.60
2023-10-29T03:17:45.377Z,12.58
2023-10-29T03:20:17.688Z,12.53
2023-10-29T03:22:45.947Z,12.47
2023-10-29T03:25:14.442Z,12.39
2023-10-29T03:27:47.203Z,12.33
2023-10-29T03:30:16.406Z,12.35
2023-10-29T03:32:45.784Z,12.40
2023-10-29T03:35:14.385Z,12.43
2023-10-29T03:37:43.500Z,12.44
2023-10-29T03:40:12.062Z,12.45
2023-10-29T03:42:40.747Z,12.42
2023-10-29T03:45:09.464Z,12.35
2023-10-29T03:47:37.757Z,12.29
2023-10-29T03:50:06.905Z,12.26
2023-10-29T03:52:35.183Z,12.21
2023-10-29T03:55:03.267Z,12.12
2023-10-29T03:57:31.523Z,12.01
2023-10-29T04:00:04.827Z,11.94
2023-10-29T04:02:54.804Z,11.83
2023-10-29T04:05:24.156Z,11.76
2023-10-29T04:07:54.170Z,11.69
2023-10-29T04:10:22.612Z,11.65
2023-10-29T04:12:50.880Z,11.62
2023-10-29T04:15:19.567Z,11.57
2023-10-29T04:17:49.857Z,11.52
2023-10-29T04:20:18.367Z,11.48
2023-10-29T04:22:46.742Z,11.44
2023-10-29T04:25:15.027Z,11.41
2023-10-29T04:27:43.199Z,11.40
2023-10-29T04:31:01.824Z,11.43
2023-10-29T04:33:30.590Z,11.45
2023-10-29T04:35:58.939Z,11.46
2023-10-29T04:38:27.905Z,11.45
2023-10-29T04:40:56.902Z,11.43
2023-10-29T04:43:25.097Z,11.40
2023-10-29T04:45:54.993Z,11.37
2023-10-29T04:48:23.807Z,11.38
2023-10-29T04:50:52.900Z,11.38
2023-10-29T04:53:21.618Z,11.37
2023-10-29T04:55:49.930Z,11.34
2023-10-29T04:58:18.756Z,11.32
2023-10-29T05:00:47.922Z,11.28
2023-10-29T05:03:16.184Z,11.25
2023-10-29T05:05:45.306Z,11.26
2023-10-29T05:08:13.860Z,11.27
2023-10-29T05:10:48.087Z,11.27
2023-10-29T05:13:16.296Z,11.28
2023-10-29T05:15:44.944Z,11.32
2023-10-29T05:18:13.970Z,11.35
2023-10-29T05:20:42.448Z,11.40
2023-10-29T05:23:11.725Z,11.46
2023-10-29T05:25:41.031Z,11.60
2023-10-29T05:28:09.400Z,11.68
2023-10-29T05:30:37.937Z,11.77
2023-10-29T05:33:07.953Z,11.85
2023-10-29T05:35:36.513Z,11.95
2023-10-29T05:38:05.787Z,12.05
2023-10-29T05:40:34.168Z,12.15
2023-10-29T05:43:02.417Z,12.26
2023-10-29T05:45:30.727Z,12.39
2023-10-29T05:48:00.358Z,12.70
2023-10-29T05:50:28.489Z,13.45
2023-10-29T05:52:56.570Z,14.43
2023-10-29T05:55:25.150Z,15.34
2023-10-29T05:57:53.831Z,16.28
2023-10-29T06:00:22.208Z,17.15
2023-10-29T06:02:50.491Z,17.98
2023-10-29T06:05:19.276Z,18.65
2023-10-29T06:07:47.578Z,19.08
2023-10-29T06:10:16.207Z,19.57
2023-10-29T06:12:44.922Z,20.08
2023-10-29T06:15:13.470Z,20.48
2023-10-29T06:17:43.711Z,20.91
2023-10-29T06:20:18.504Z,21.30
2023-10-29T06:22:47.242Z,21.63
2023-10-29T06:25:16.974Z,22.06
2023-10-29T06:27:45.329Z,22.22
2023-10-29T06:30:14.173Z,22.50
2023-10-29T06:32:42.396Z,22.84
2023-10-29T06:35:11.283Z,23.04
2023-10-29T06:37:39.559Z,23.43
2023-10-29T06:40:08.962Z,23.82
2023-10-29T06:42:39.217Z,24.07
2023-10-29T06:45:08.315Z,24.23
2023-10-29T06:47:37.016Z,24.44
2023-10-29T06:50:06.381Z,24.63
2023-10-29T06:52:34.644Z,24.89
2023-10-29T06:55:02.713Z,24.99
2023-10-29T06:57:31.092Z,25.12
2023-10-29T07:00:00.970Z,25.34
2023-10-29T07:02:29.487Z,25.50
2023-10-29T07:04:59.838Z,25.60
2023-10-29T07:07:30.241Z,25.65
2023-10-29T07:09:58.393Z,25.83
2023-10-29T07:12:26.600Z,26.10
2023-10-29T07:14:54.880Z,26.33
2023-10-29T07:17:23.363Z,26.60
2023-10-29T07:19:55.885Z,26.72
2023-10-29T07:22:24.298Z,26.91
2023-10-29T07:24:52.678Z,27.38
2023-10-29T07:27:21.461Z,27.80
2023-10-29T07:29:49.649Z,28.12
2023-10-29T07:32:17.914Z,28.19
2023-10-29T07:34:47.386Z,28.46
2023-10-29T07:37:16.117Z,28.60
2023-10-29T07:39:44.182Z,28.48
2023-10-29T07:42:12.344Z,28.65
2023-10-29T07:44:40.671Z,28.90
2023-10-29T07:47:09.595Z,29.16
2023-10-29T07:49:38.928Z,29.39
2023-10-29T07:52:08.229Z,29.52
2023-10-29T07:54:36.510Z,29.69
2023-10-29T07:57:05.700Z,29.84
2023-10-29T07:59:35.544Z,30.13
2023-10-29T08:02:04.298Z,30.18
2023-10-29T08:04:33.007Z,30.24
2023-10-29T08:07:01.875Z,30.44
2023-10-29T08:09:30.040Z,30.44
2023-10-29T08:11:58.479Z,30.40
2023-10-29T08:14:26.903Z,30.35
2023-10-29T08:16:55.188Z,30.52
2023-10-29T08:19:25.301Z,30.51
2023-10-29T08:21:53.421Z,30.81
2023-10-29T08:24:21.748Z,31.14
2023-10-29T08:26:50.087Z,31.37
2023-10-29T08:29:18.509Z,31.84
2023-10-29T08:31:46.831Z,31.73
2023-10-29T08:34:15.367Z,31.76
2023-10-29T08:36:43.494Z,32.34
2023-10-29T08:39:11.851Z,32.49
2023-10-29T08:41:39.924Z,32.68
2023-10-29T08:44:08.185Z,32.60
2023-10-29T08:46:36.775Z,32.63
2023-10-29T08:49:05.221Z,32.59
2023-10-29T08:51:33.601Z,33.05
2023-10-29T08:54:05.004Z,33.14
2023-10-29T08:56:37.470Z,33.15
2023-10-29T08:59:06.834Z,33.12
2023-10-29T09:01:35.458Z,33.35
2023-10-29T09:04:05.644Z,33.41
2023-10-29T09:06:34.241Z,33.44
2023-10-29T09:09:03.745Z,33.76
2023-10-29T09:11:33.201Z,33.66
2023-10-29T09:14:02.634Z,34.04
2023-10-29T09:16:31.028Z,34.07
2023-10-29T09:18:59.408Z,34.18
2023-10-29T09:21:28.589Z,34.17
2023-10-29T09:23:57.100Z,34.59
2023-10-29T09:26:25.241Z,34.27
2023-10-29T09:28:53.735Z,33.95
2023-10-29T09:31:22.343Z,34.06
2023-10-29T09:33:51.197Z,34.10
2023-10-29T09:36:19.881Z,34.38
2023-10-29T09:38:48.487Z,34.75
2023-10-29T09:41:19.836Z,34.66
2023-10-29T09:43:48.295Z,34.65
2023-10-29T09:46:17.010Z,34.76
2023-10-29T09:48:46.035Z,35.02
2023-10-29T09:51:17.116Z,35.06
2023-10-29T09:53:47.325Z,34.57
2023-10-29T09:56:17.168Z,34.95
2023-10-29T09:58:45.634Z,35.57
2023-10-29T10:01:13.792Z,35.79
2023-10-29T10:03:42.162Z,35.60
2023-10-29T10:06:12.860Z,35.56
2023-10-29T10:08:41.415Z,35.61
2023-10-29T10:11:23.118Z,35.48
2023-10-29T10:13:51.775Z,35.58
2023-10-29T10:16:21.929Z,35.53
2023-10-29T10:18:58.555Z,35.68
2023-10-29T10:21:42.813Z,35.48
2023-10-29T10:24:12.059Z,35.23
2023-10-29T10:26:42.060Z,34.88
2023-10-29T10:29:11.637Z,34.43
2023-10-29T10:31:40.265Z,33.95
2023-10-29T10:34:19.945Z,33.61
2023-10-29T10:36:51.463Z,33.34
2023-10-29T10:39:26.996Z,33.21
2023-10-29T10:41:59.251Z,33.07
2023-10-29T10:44:31.652Z,33.06
2023-10-29T10:47:01.520Z,32.88
2023-10-29T10:49:33.078Z,32.44
2023-10-29T10:52:03.612Z,32.16
2023-10-29T10:54:32.083Z,32.06
2023-10-29T10:57:01.093Z,32.09
2023-10-29T10:59:31.502Z,31.80
2023-10-29T11:02:02.032Z,31.36
2023-10-29T11:04:32.520Z,31.26
2023-10-29T11:07:01.560Z,31.40
2023-10-29T11:09:30.137Z,31.32
2023-10-29T11:11:59.273Z,31.46
2023-10-29T11:14:27.722Z,31.63
2023-10-29T11:16:58.303Z,31.65
2023-10-29T11:19:45.513Z,31.69
2023-10-29T11:22:30.400Z,31.62
2023-10-29T11:25:09.771Z,31.48
2023-10-29T11:27:39.615Z,31.57
2023-10-29T11:30:15.108Z,31.66
2023-10-29T11:32:47.288Z,31.70
2023-10-29T11:35:23.581Z,31.87
2023-10-29T11:37:53.546Z,31.89
2023-10-29T11:40:24.929Z,31.95
2023-10-29T11:42:55.043Z,32.14
2023-10-29T11:45:29.478Z,32.20
2023-10-29T11:48:13.288Z,32.40
2023-10-29T11:50:43.670Z,32.63
2023-10-29T11:53:32.585Z,32.65
2023-10-29T11:56:11.701Z,32.63
2023-10-29T11:58:40.320Z,32.24
2023-10-29T12:01:09.191Z,31.93
2023-10-29T12:03:37.676Z,31.87
2023-10-29T12:06:06.201Z,32.03
2023-10-29T12:08:36.162Z,32.03
2023-10-29T12:11:04.851Z,31.68
2023-10-29T12:13:42.946Z,32.01
2023-10-29T12:16:11.676Z,32.40
2023-10-29T12:18:41.188Z,32.77
2023-10-29T12:21:11.232Z,33.02
2023-10-29T12:23:41.336Z,33.25
2023-10-29T12:26:12.221Z,33.30
2023-10-29T12:28:40.929Z,33.37
2023-10-29T12:31:26.798Z,33.63
2023-10-29T12:33:59.786Z,33.84
2023-10-29T12:36:28.889Z,34.10
2023-10-29T12:38:57.622Z,34.39
2023-10-29T12:41:32.093Z,34.24
2023-10-29T12:44:01.052Z,34.18
2023-10-29T12:46:29.794Z,34.12
2023-10-29T12:49:00.941Z,34.05
2023-10-29T12:51:35.546Z,33.58
2023-10-29T12:54:11.120Z,33.05
2023-10-29T12:56:49.444Z,32.67
2023-10-29T12:59:21.778Z,32.15
2023-10-29T13:01:54.533Z,31.57
2023-10-29T13:04:24.838Z,31.31
2023-10-29T13:06:56.946Z,31.30
2023-10-29T13:09:29.387Z,31.16
2023-10-29T13:11:57.830Z,31.17
2023-10-29T13:14:26.273Z,30.93
2023-10-29T13:16:55.149Z,30.51
2023-10-29T13:19:24.561Z,30.71
2023-10-29T13:21:53.928Z,30.89
2023-10-29T13:24:25.517Z,30.88
2023-10-29T13:26:54.180Z,30.56
2023-10-29T13:29:22.490Z,30.24
2023-10-29T13:31:51.375Z,30.02
2023-10-29T13:34:19.751Z,29.87
2023-10-29T13:36:48.026Z,29.61
2023-10-29T13:39:19.592Z,29.11
2023-10-29T13:41:49.932Z,28.54
2023-10-29T13:44:18.694Z,28.17
2023-10-29T13:46:47.021Z,28.02
2023-10-29T13:49:15.860Z,27.79
2023-10-29T13:51:46.290Z,27.46
2023-10-29T13:54:14.637Z,27.17
2023-10-29T13:56:43.049Z,27.08
2023-10-29T13:59:11.635Z,27.02
2023-10-29T14:01:41.050Z,26.81
2023-10-29T14:04:09.615Z,26.77
2023-10-29T14:06:37.995Z,26.79
2023-10-29T14:09:06.980Z,26.59
2023-10-29T14:11:39.360Z,26.36
2023-10-29T14:14:08.862Z,26.16
2023-10-29T14:16:41.965Z,25.98
2023-10-29T14:19:10.944Z,25.84
2023-10-29T14:21:39.333Z,25.64
2023-10-29T14:24:08.774Z,25.51
2023-10-29T14:26:37.947Z,25.18
2023-10-29T14:29:06.210Z,24.79
2023-10-29T14:31:37.147Z,24.51
2023-10-29T14:34:06.248Z,24.22
2023-10-29T14:36:35.527Z,23.97
2023-10-29T14:39:04.571Z,23.73
2023-10-29T14:41:32.811Z,23.43
2023-10-29T14:44:01.536Z,23.02
2023-10-29T14:46:30.133Z,22.59
2023-10-29T14:48:58.450Z,22.22
2023-10-29T14:51:26.639Z,21.86
2023-10-29T14:53:55.027Z,21.51
2023-10-29T14:56:23.686Z,21.12
2023-10-29T14:58:51.863Z,20.75
2023-10-29T15:01:21.771Z,20.42
2023-10-29T15:03:52.256Z,20.14
2023-10-29T15:06:21.543Z,19.80
2023-10-29T15:08:51.042Z,19.55
2023-10-29T15:11:33.913Z,19.35
2023-10-29T15:14:06.914Z,19.16
2023-10-29T15:16:35.689Z,18.99
2023-10-29T15:19:07.623Z,18.82
2023-10-29T15:21:36.559Z,18.61
2023-10-29T15:24:05.978Z,18.42
2023-10-29T15:26:34.350Z,18.20
2023-10-29T15:29:02.708Z,18.07
2023-10-29T15:31:33.378Z,17.96
2023-10-29T15:34:01.528Z,17.89
2023-10-29T15:36:30.751Z,17.78
2023-10-29T15:38:59.204Z,17.69
2023-10-29T15:41:28.077Z,17.62
2023-10-29T15:43:57.383Z,17.54
2023-10-29T15:46:25.862Z,17.47
2023-10-29T15:48:54.245Z,17.37
2023-10-29T15:51:25.878Z,17.31
2023-10-29T15:53:55.784Z,17.25
2023-10-29T15:56:26.241Z,17.18
2023-10-29T15:58:54.732Z,17.10
2023-10-29T16:01:23.152Z,17.03
2023-10-29T16:03:52.088Z,17.00
2023-10-29T16:06:20.475Z,17.00
2023-10-29T16:08:48.793Z,16.97
2023-10-29T16:11:26.301Z,16.92
2023-10-29T16:13:55.132Z,16.86
2023-10-29T16:16:25.782Z,16.82
2023-10-29T16:18:56.182Z,16.77
2023-10-29T16:21:24.490Z,16.73
2023-10-29T16:23:54.919Z,16.69
2023-10-29T16:26:23.361Z,16.63
2023-10-29T16:28:51.465Z,16.54
2023-10-29T16:31:20.741Z,16.43
2023-10-29T16:33:49.685Z,16.32
2023-10-29T16:36:20.109Z,16.21
2023-10-29T16:38:53.057Z,16.11
2023-10-29T16:41:21.206Z,16.00
2023-10-29T16:43:51.191Z,15.92
2023-10-29T16:46:19.783Z,15.86
2023-10-29T16:48:52.083Z,15.78
2023-10-29T16:51:20.979Z,15.71
2023-10-29T16:53:52.242Z,15.65
2023-10-29T16:56:22.028Z,15.57
2023-10-29T16:58:50.513Z,15.43
2023-10-29T17:01:19.221Z,15.33
2023-10-29T17:03:52.299Z,15.22
2023-10-29T17:06:20.697Z,15.18
2023-10-29T17:08:55.930Z,15.13
2023-10-29T17:11:24.385Z,15.08
2023-10-29T17:13:55.934Z,15.02
2023-10-29T17:16:24.243Z,14.95
2023-10-29T17:18:52.868Z,14.87
2023-10-29T17:21:21.269Z,14.81
2023-10-29T17:23:52.661Z,14.77
2023-10-29T17:26:21.622Z,14.77
2023-10-29T17:28:50.000Z,14.75
2023-10-29T17:31:20.544Z,14.70
2023-10-29T17:33:52.897Z,14.64
2023-10-29T17:36:23.580Z,14.57
2023-10-29T17:38:52.248Z,14.51
2023-10-29T17:41:23.763Z,14.47
2023-10-29T17:43:52.563Z,14.44
2023-10-29T17:46:31.069Z,14.39
2023-10-29T17:49:06.286Z,14.34
2023-10-29T17:51:34.787Z,14.27
2023-10-29T17:54:05.656Z,14.19
2023-10-29T17:56:34.414Z,14.04
2023-10-29T17:59:04.716Z,13.94
2023-10-29T18:01:33.057Z,13.89
2023-10-29T18:04:04.463Z,13.83
2023-10-29T18:06:35.049Z,13.75
2023-10-29T18:09:03.897Z,13.69
2023-10-29T18:11:32.188Z,13.60
2023-10-29T18:14:03.116Z,13.52
2023-10-29T18:16:31.578Z,13.45
2023-10-29T18:19:01.081Z,13.41
2023-10-29T18:21:30.884Z,13.39
2023-10-29T18:23:59.394Z,13.37
2023-10-29T18:26:31.453Z,13.36
2023-10-29T18:28:59.618Z,13.35
2023-10-29T18:31:28.118Z,13.33
2023-10-29T18:34:05.477Z,13.31
2023-10-29T18:36:33.856Z,13.31
2023-10-29T18:39:08.488Z,13.33
2023-10-29T18:41:41.268Z,13.30
2023-10-29T18:44:12.418Z,13.26
2023-10-29T18:46:40.684Z,13.24
2023-10-29T18:49:14.279Z,13.19
2023-10-29T18:51:43.082Z,13.16
2023-10-29T18:54:18.379Z,13.11
2023-10-29T18:56:53.793Z,13.08
2023-10-29T18:59:23.056Z,13.05
2023-10-29T19:01:52.807Z,13.02
2023-10-29T19:04:26.021Z,12.97
2023-10-29T19:06:55.250Z,12.94
2023-10-29T19:09:29.253Z,12.90
2023-10-29T19:11:58.510Z,12.86
2023-10-29T19:14:28.477Z,12.78
2023-10-29T19:17:03.318Z,12.71
2023-10-29T19:19:31.689Z,12.67
2023-10-29T19:22:00.124Z,12.65
2023-10-29T19:24:35.267Z,12.65
2023-10-29T19:27:04.232Z,12.64
2023-10-29T19:29:32.572Z,12.62
2023-10-29T19:32:06.291Z,12.58
2023-10-29T19:34:37.084Z,12.52
2023-10-29T19:37:05.307Z,12.47
2023-10-29T19:39:33.689Z,12.44
2023-10-29T19:42:02.180Z,12.41
2023-10-29T19:44:30.423Z,12.35
2023-10-29T19:46:59.213Z,12.23
2023-10-29T19:49:30.452Z,12.14
2023-10-29T19:51:59.857Z,12.08
2023-10-29T19:54:31.234Z,12.02
2023-10-29T19:57:01.523Z,11.97
2023-10-29T19:59:30.115Z,11.94
2023-10-29T20:02:00.340Z,11.83
2023-10-29T20:04:28.945Z,11.64
2023-10-29T20:06:58.009Z,11.55
2023-10-29T20:09:26.320Z,11.44
2023-10-29T20:11:54.681Z,11.34
2023-10-29T20:14:22.941Z,11.19
2023-10-29T20:16:51.529Z,11.14
2023-10-29T20:19:21.928Z,11.12
2023-10-29T20:21:50.480Z,11.13
2023-10-29T20:24:20.263Z,11.12
2023-10-29T20:26:50.764Z,11.07
2023-10-29T20:29:26.112Z,11.04
2023-10-29T20:31:54.719Z,11.01
2023-10-29T20:34:25.736Z,10.96
2023-10-29T20:36:56.572Z,10.91
2023-10-29T20:39:24.970Z,10.90
2023-10-29T20:41:53.458Z,10.85
2023-10-29T20:44:26.930Z,10.75
2023-10-29T20:46:55.414Z,10.71
2023-10-29T20:49:23.787Z,10.67
2023-10-29T20:51:52.064Z,10.63
2023-10-29T20:54:23.833Z,10.56
2023-10-29T20:56:52.815Z,10.47
2023-10-29T20:59:23.345Z,10.43
2023-10-29T21:01:51.993Z,10.42
2023-10-29T21:04:20.561Z,10.39
2023-10-29T21:06:49.505Z,10.37
2023-10-29T21:09:17.683Z,10.33
2023-10-29T21:11:46.170Z,10.32
2023-10-29T21:14:14.439Z,10.33
2023-10-29T21:16:42.677Z,10.34
2023-10-29T21:19:11.091Z,10.34
2023-10-29T21:21:39.424Z,10.31
2023-10-29T21:24:08.932Z,10.32
2023-10-29T21:26:37.246Z,10.32
2023-10-29T21:29:05.565Z,10.27
2023-10-29T21:31:34.420Z,10.25
2023-10-29T21:34:02.996Z,10.23
2023-10-29T21:36:31.305Z,10.17
2023-10-29T21:38:59.696Z,10.11
2023-10-29T21:41:29.777Z,10.06
2023-10-29T21:43:58.145Z,10.02
2023-10-29T21:46:26.735Z,9.98
2023-10-29T21:48:55.213Z,9.98
2023-10-29T21:51:24.692Z,9.97
2023-10-29T21:53:53.606Z,9.94
2023-10-29T21:56:21.825Z,9.89
2023-10-29T21:58:50.277Z,9.84
2023-10-29T22:01:23.312Z,9.82
2023-10-29T22:03:51.631Z,9.82
2023-10-29T22:06:22.391Z,9.85
2023-10-29T22:08:50.836Z,9.87
2023-10-29T22:11:19.008Z,9.85
2023-10-29T22:13:47.187Z,9.84
2023-10-29T22:16:16.167Z,9.86
2023-10-29T22:18:44.615Z,9.85
2023-10-29T22:21:14.208Z,9.84
2023-10-29T22:23:42.478Z,9.85
2023-10-29T22:26:10.712Z,9.88
2023-10-29T22:28:39.960Z,9.88
2023-10-29T22:31:08.652Z,9.84
2023-10-29T22:33:37.343Z,9.78
2023-10-29T22:36:07.440Z,9.70
2023-10-29T22:38:37.013Z,9.65
2023-10-29T22:41:07.485Z,9.59
2023-10-29T22:43:37.265Z,9.55
2023-10-29T22:46:06.213Z,9.54
2023-10-29T22:48:34.614Z,9.56
2023-10-29T22:51:03.777Z,9.55
2023-10-29T22:53:32.295Z,9.53
2023-10-29T22:56:01.839Z,9.54
2023-10-29T22:58:30.518Z,9.56
2023-10-29T23:01:00.018Z,9.55
2023-10-29T23:03:29.272Z,9.53
2023-10-29T23:06:03.751Z,9.45
2023-10-29T23:08:32.745Z,9.38
2023-10-29T23:11:01.188Z,9.39
2023-10-29T23:13:30.590Z,9.41
2023-10-29T23:15:58.865Z,9.40
2023-10-29T23:18:28.476Z,9.39
2023-10-29T23:20:56.950Z,9.40
2023-10-29T23:23:26.067Z,9.41
2023-10-29T23:25:55.854Z,9.40
2023-10-29T23:28:36.604Z,9.40
2023-10-29T23:31:10.274Z,9.40
2023-10-29T23:33:39.837Z,9.43
2023-10-29T23:36:08.799Z,9.44
2023-10-29T23:38:37.000Z,9.46
2023-10-29T23:41:05.484Z,9.47
2023-10-29T23:43:33.753Z,9.49
2023-10-29T23:46:01.920Z,9.50
2023-10-29T23:48:55.392Z,9.48
2023-10-29T23:51:25.003Z,9.50
2023-10-29T23:53:53.481Z,9.52
2023-10-29T23:56:21.667Z,9.52
2023-10-29T23:58:50.036Z,9.48
